createdAt,value
2023-03-15T00:01:15.726Z,4.20
2023-03-15T00:03:43.658Z,4.10
2023-03-15T00:06:11.907Z,4.30
2023-03-15T00:08:38.927Z,3.90
2023-03-15T00:11:06.760Z,2.90
2023-03-15T00:13:33.907Z,2.50
2023-03-15T00:16:02.470Z,2.70
2023-03-15T00:18:29.033Z,2.90
2023-03-15T00:20:56.084Z,3.10
2023-03-15T00:23:22.553Z,2.60
2023-03-15T00:25:51.040Z,2.80
2023-03-15T00:28:17.955Z,3.40
2023-03-15T00:30:44.778Z,3.40
2023-03-15T00:33:12.592Z,3.80
2023-03-15T00:35:41.192Z,2.80
2023-03-15T00:38:08.329Z,2.20
2023-03-15T00:40:37.093Z,2.10
2023-03-15T00:43:05.771Z,1.60
2023-03-15T00:45:32.930Z,1.70
2023-03-15T00:47:59.877Z,7.10
2023-03-15T00:50:26.645Z,7.30
2023-03-15T00:52:53.338Z,6.00
2023-03-15T00:55:20.054Z,5.00
2023-03-15T00:57:47.444Z,5.60
2023-03-15T01:00:18.823Z,8.10
2023-03-15T01:02:45.485Z,7.30
2023-03-15T01:05:12.369Z,7.40
2023-03-15T01:07:39.047Z,12.60
2023-03-15T01:10:07.532Z,6.60
2023-03-15T01:12:34.696Z,6.60
2023-03-15T01:15:03.855Z,4.90
2023-03-15T01:17:30.541Z,5.40
2023-03-15T01:19:58.727Z,7.50
2023-03-15T01:22:26.618Z,2.90
2023-03-15T01:24:53.453Z,3.10
2023-03-15T01:27:20.729Z,2.40
2023-03-15T01:29:47.606Z,2.30
2023-03-15T01:32:14.640Z,2.70
2023-03-15T01:34:41.592Z,3.20
2023-03-15T01:37:09.535Z,3.20
2023-03-15T01:39:36.048Z,3.20
2023-03-15T01:42:03.063Z,3.10
2023-03-15T01:45:26.063Z,2.60
2023-03-15T01:47:52.691Z,2.00
2023-03-15T01:50:19.557Z,2.20
2023-03-15T01:52:46.184Z,2.40
2023-03-15T01:55:16.737Z,2.70
2023-03-15T01:57:51.839Z,2.70
2023-03-15T02:00:20.393Z,3.10
2023-03-15T02:02:49.150Z,3.10
2023-03-15T02:05:21.882Z,3.20
2023-03-15T02:07:50.292Z,3.20
2023-03-15T02:10:23.424Z,2.80
2023-03-15T02:12:52.476Z,3.40
2023-03-15T02:15:19.274Z,3.60
2023-03-15T02:17:48.072Z,3.30
2023-03-15T02:20:23.542Z,3.50
2023-03-15T02:23:00.364Z,3.60
2023-03-15T02:25:42.368Z,3.70
2023-03-15T02:28:12.330Z,3.60
2023-03-15T02:30:39.499Z,3.70
2023-03-15T02:33:11.048Z,4.30
2023-03-15T02:35:37.631Z,5.40
2023-03-15T02:38:04.156Z,7.00
2023-03-15T02:40:31.208Z,7.20
2023-03-15T02:43:04.320Z,7.20
2023-03-15T02:45:36.834Z,8.00
2023-03-15T02:48:05.619Z,7.80
2023-03-15T02:50:32.484Z,7.80
2023-03-15T02:52:58.977Z,7.90
2023-03-15T02:55:25.555Z,7.50
2023-03-15T02:57:52.155Z,7.90
2023-03-15T03:00:18.922Z,7.00
2023-03-15T03:02:47.577Z,8.50
2023-03-15T03:05:15.725Z,7.80
2023-03-15T03:07:42.488Z,7.40
2023-03-15T03:10:11.107Z,6.60
2023-03-15T03:12:37.560Z,6.00
2023-03-15T03:15:05.207Z,6.00
2023-03-15T03:17:33.272Z,6.60
2023-03-15T03:19:59.816Z,5.20
2023-03-15T03:22:26.468Z,5.50
2023-03-15T03:24:53.146Z,5.50
2023-03-15T03:27:19.606Z,5.90
2023-03-15T03:29:46.226Z,5.70
2023-03-15T03:32:12.825Z,5.60
2023-03-15T03:34:39.502Z,4.40
2023-03-15T03:37:06.275Z,4.80
2023-03-15T03:39:32.809Z,4.90
2023-03-15T03:41:59.449Z,4.90
2023-03-15T03:44:26.105Z,4.30
2023-03-15T03:46:54.756Z,4.60
2023-03-15T03:49:21.250Z,5.40
2023-03-15T03:51:47.693Z,4.30
2023-03-15T03:54:17.116Z,3.90
2023-03-15T03:56:44.155Z,3.40
2023-03-15T03:59:10.589Z,3.70
2023-03-15T04:01:37.145Z,4.20
2023-03-15T04:04:03.697Z,3.80
2023-03-15T04:06:30.473Z,3.50
2023-03-15T04:08:57.307Z,3.50
2023-03-15T04:11:23.953Z,3.70
2023-03-15T04:13:50.501Z,3.50
2023-03-15T04:16:17.081Z,3.90
2023-03-15T04:18:43.728Z,4.30
2023-03-15T04:21:10.172Z,4.80
2023-03-15T04:23:38.338Z,5.70
2023-03-15T04:26:05.703Z,5.80
2023-03-15T04:28:32.337Z,5.70
2023-03-15T04:30:59.105Z,6.10
2023-03-15T04:33:26.243Z,5.30
2023-03-15T04:35:52.747Z,3.50
2023-03-15T04:38:20.072Z,4.70
2023-03-15T04:40:46.725Z,4.60
2023-03-15T04:43:13.313Z,3.90
2023-03-15T04:45:39.943Z,3.90
2023-03-15T04:48:10.059Z,6.30
2023-03-15T04:50:36.561Z,4.00
2023-03-15T04:53:03.064Z,4.70
2023-03-15T04:55:29.735Z,4.80
2023-03-15T04:57:56.126Z,5.20
2023-03-15T05:00:23.060Z,5.00
2023-03-15T05:02:49.706Z,5.60
2023-03-15T05:05:16.253Z,5.70
2023-03-15T05:07:42.729Z,7.00
2023-03-15T05:10:10.218Z,6.50
2023-03-15T05:12:36.678Z,9.60
2023-03-15T05:15:03.516Z,19.10
2023-03-15T05:17:30.093Z,5.70
2023-03-15T05:19:56.580Z,7.00
2023-03-15T05:22:23.041Z,7.10
2023-03-15T05:24:49.633Z,7.10
2023-03-15T05:27:16.178Z,8.40
2023-03-15T05:29:42.719Z,8.30
2023-03-15T05:32:09.370Z,7.90
2023-03-15T05:34:35.848Z,7.40
2023-03-15T05:37:02.523Z,8.80
2023-03-15T05:39:29.114Z,9.60
2023-03-15T05:41:55.748Z,8.80
2023-03-15T05:44:22.396Z,8.00
2023-03-15T05:46:48.962Z,8.60
2023-03-15T05:49:17.061Z,8.30
2023-03-15T05:51:43.665Z,7.90
2023-03-15T05:54:10.409Z,8.00
2023-03-15T05:56:36.855Z,9.10
2023-03-15T05:59:03.318Z,7.60
2023-03-15T06:01:29.969Z,8.10
2023-03-15T06:03:56.696Z,9.80
2023-03-15T06:06:23.221Z,8.30
2023-03-15T06:08:49.659Z,8.50
2023-03-15T06:11:16.271Z,9.50
2023-03-15T06:13:42.807Z,8.30
2023-03-15T06:16:09.458Z,9.30
2023-03-15T06:18:35.864Z,10.00
2023-03-15T06:21:02.343Z,9.40
2023-03-15T06:23:28.853Z,10.10
2023-03-15T06:25:55.458Z,10.20
2023-03-15T06:28:21.959Z,10.80
2023-03-15T06:30:48.534Z,11.80
2023-03-15T06:33:15.040Z,12.50
2023-03-15T06:35:41.605Z,13.20
2023-03-15T06:38:08.863Z,12.60
2023-03-15T06:40:36.469Z,12.60
2023-03-15T06:43:03.008Z,12.60
2023-03-15T06:45:29.558Z,13.70
2023-03-15T06:47:55.970Z,12.80
2023-03-15T06:50:26.166Z,12.70
2023-03-15T06:52:52.673Z,12.10
2023-03-15T06:55:19.115Z,14.10
2023-03-15T06:57:45.799Z,16.40
2023-03-15T07:00:13.066Z,11.80
2023-03-15T07:02:39.792Z,12.50
2023-03-15T07:05:07.933Z,12.80
2023-03-15T07:07:34.501Z,11.20
2023-03-15T07:10:01.055Z,9.90
2023-03-15T07:12:27.841Z,10.20
2023-03-15T07:14:54.419Z,9.70
2023-03-15T07:17:20.815Z,10.70
2023-03-15T07:19:56.184Z,10.10
2023-03-15T07:22:23.484Z,8.50
2023-03-15T07:24:50.040Z,8.60
2023-03-15T07:27:19.237Z,7.20
2023-03-15T07:29:46.004Z,8.80
2023-03-15T07:32:12.468Z,6.90
2023-03-15T07:34:39.380Z,5.80
2023-03-15T07:37:05.920Z,7.60
2023-03-15T07:39:32.534Z,8.00
2023-03-15T07:41:59.594Z,8.10
2023-03-15T07:44:26.360Z,8.90
2023-03-15T07:46:53.240Z,9.10
2023-03-15T07:49:19.864Z,9.10
2023-03-15T07:51:50.089Z,9.50
2023-03-15T07:54:16.648Z,8.40
2023-03-15T07:56:43.179Z,8.20
2023-03-15T07:59:09.819Z,8.40
2023-03-15T08:01:36.699Z,6.00
2023-03-15T08:04:03.722Z,4.70
2023-03-15T08:06:30.170Z,4.90
2023-03-15T08:08:56.633Z,4.90
2023-03-15T08:11:23.266Z,5.80
2023-03-15T08:13:49.694Z,5.10
2023-03-15T08:16:16.356Z,4.80
2023-03-15T08:18:42.870Z,4.80
2023-03-15T08:21:09.269Z,4.80
2023-03-15T08:23:35.820Z,4.30
2023-03-15T08:26:02.467Z,4.70
2023-03-15T08:28:28.950Z,5.30
2023-03-15T08:30:55.703Z,4.80
2023-03-15T08:33:22.263Z,4.20
2023-03-15T08:35:53.692Z,5.60
2023-03-15T08:40:46.610Z,5.30
2023-03-15T08:43:13.029Z,4.40
2023-03-15T08:45:56.932Z,4.40
2023-03-15T08:48:25.893Z,5.60
2023-03-15T08:50:52.439Z,3.80
2023-03-15T08:53:22.952Z,4.70
2023-03-15T08:55:49.628Z,4.20
2023-03-15T08:58:16.351Z,4.30
2023-03-15T09:00:42.794Z,4.30
2023-03-15T09:03:09.467Z,4.00
2023-03-15T09:05:36.435Z,3.70
2023-03-15T09:08:03.256Z,4.20
2023-03-15T09:10:29.693Z,4.80
2023-03-15T09:12:56.451Z,4.50
2023-03-15T09:15:22.959Z,3.30
2023-03-15T09:17:50.664Z,4.30
2023-03-15T09:20:17.182Z,3.40
2023-03-15T09:22:44.985Z,3.70
2023-03-15T09:25:11.551Z,4.00
2023-03-15T09:27:38.296Z,4.20
2023-03-15T09:30:05.651Z,3.70
2023-03-15T09:32:32.549Z,3.80
2023-03-15T09:34:59.059Z,4.20
2023-03-15T09:37:25.459Z,4.30
2023-03-15T09:39:52.000Z,4.20
2023-03-15T09:42:56.198Z,4.70
2023-03-15T09:45:58.437Z,4.70
2023-03-15T09:48:33.003Z,5.40
2023-03-15T09:51:14.179Z,4.40
2023-03-15T09:54:04.913Z,4.50
2023-03-15T09:56:39.557Z,4.10
2023-03-15T09:59:06.802Z,4.90
2023-03-15T10:01:39.473Z,4.60
2023-03-15T10:04:12.511Z,5.10
2023-03-15T10:06:45.325Z,5.00
2023-03-15T10:09:18.199Z,5.70
2023-03-15T10:12:00.279Z,4.50
2023-03-15T10:15:04.954Z,5.10
2023-03-15T10:17:59.447Z,6.20
2023-03-15T10:20:33.202Z,5.60
2023-03-15T10:23:15.549Z,4.90
2023-03-15T10:25:43.689Z,5.10
2023-03-15T10:28:14.304Z,7.70
2023-03-15T10:30:47.425Z,5.00
2023-03-15T10:33:23.661Z,5.50
2023-03-15T10:35:52.487Z,5.60
2023-03-15T10:38:24.828Z,4.50
2023-03-15T10:40:53.986Z,10.70
2023-03-15T10:43:23.805Z,5.60
2023-03-15T10:46:01.486Z,5.20
2023-03-15T10:48:31.211Z,6.60
2023-03-15T10:51:03.184Z,5.70
2023-03-15T10:53:29.644Z,4.50
2023-03-15T10:56:05.135Z,3.80
2023-03-15T10:59:01.569Z,4.00
2023-03-15T11:01:34.823Z,4.60
2023-03-15T11:04:06.797Z,4.30
2023-03-15T11:06:48.350Z,4.40
2023-03-15T11:11:57.364Z,4.20
2023-03-15T11:14:24.625Z,3.80
2023-03-15T11:16:55.290Z,3.40
2023-03-15T11:19:26.882Z,4.10
2023-03-15T11:24:26.354Z,3.50
2023-03-15T11:26:55.913Z,3.50
2023-03-15T11:29:35.437Z,4.20
2023-03-15T11:32:12.260Z,3.50
2023-03-15T11:34:38.638Z,3.90
2023-03-15T11:37:14.236Z,3.80
2023-03-15T11:39:53.782Z,4.00
2023-03-15T11:42:34.128Z,3.70
2023-03-15T11:45:09.036Z,3.70
2023-03-15T11:47:51.486Z,3.00
2023-03-15T11:50:18.634Z,3.60
2023-03-15T11:52:50.167Z,4.60
2023-03-15T11:55:24.985Z,3.10
2023-03-15T11:57:54.550Z,2.80
2023-03-15T12:00:31.970Z,3.10
2023-03-15T12:03:19.890Z,3.50
2023-03-15T12:05:49.430Z,3.20
2023-03-15T12:08:45.133Z,3.20
2023-03-15T12:11:18.689Z,4.80
2023-03-15T12:13:57.136Z,3.70
2023-03-15T12:16:27.272Z,3.10
2023-03-15T12:18:58.351Z,3.80
2023-03-15T12:21:44.785Z,3.60
2023-03-15T12:24:21.467Z,3.60
2023-03-15T12:27:03.491Z,3.60
2023-03-15T12:29:32.609Z,3.50
2023-03-15T12:31:59.011Z,2.80
2023-03-15T12:34:42.656Z,3.00
2023-03-15T12:37:38.369Z,2.70
2023-03-15T12:40:17.245Z,3.00
2023-03-15T12:42:43.686Z,3.70
2023-03-15T12:45:16.563Z,2.70
2023-03-15T12:47:52.212Z,2.80
2023-03-15T12:50:56.653Z,3.10
2023-03-15T12:53:32.027Z,2.70
2023-03-15T12:56:47.224Z,2.90
2023-03-15T12:59:53.565Z,3.20
2023-03-15T13:02:42.210Z,4.40
2023-03-15T13:05:09.696Z,2.90
2023-03-15T13:07:57.668Z,4.60
2023-03-15T13:10:49.955Z,3.10
2023-03-15T13:13:43.800Z,2.90
2023-03-15T13:16:29.869Z,2.70
2023-03-15T13:19:21.737Z,2.20
2023-03-15T13:24:27.318Z,2.90
2023-03-15T13:27:09.223Z,3.20
2023-03-15T13:29:36.588Z,3.70
2023-03-15T13:32:17.213Z,3.30
2023-03-15T13:34:48.329Z,2.60
2023-03-15T13:37:26.746Z,2.60
2023-03-15T13:40:13.462Z,3.50
2023-03-15T13:42:40.876Z,3.50
2023-03-15T13:45:15.368Z,3.00
2023-03-15T13:47:44.426Z,4.70
2023-03-15T13:50:16.957Z,3.50
2023-03-15T13:52:44.317Z,4.00
2023-03-15T13:55:22.314Z,5.00
2023-03-15T13:57:57.055Z,3.50
2023-03-15T14:00:24.389Z,5.20
2023-03-15T14:03:00.884Z,3.80
2023-03-15T14:05:31.759Z,3.40
2023-03-15T14:08:05.688Z,3.40
2023-03-15T14:10:35.106Z,3.00
2023-03-15T14:13:24.888Z,3.20
2023-03-15T14:16:01.908Z,3.40
2023-03-15T14:18:46.305Z,3.40
2023-03-15T14:21:32.229Z,4.20
2023-03-15T14:24:06.741Z,2.80
2023-03-15T14:26:36.092Z,3.50
2023-03-15T14:29:15.726Z,4.10
2023-03-15T14:31:49.303Z,3.30
2023-03-15T14:34:30.876Z,3.00
2023-03-15T14:39:42.013Z,6.20
2023-03-15T14:42:11.948Z,3.80
2023-03-15T14:44:38.729Z,3.40
2023-03-15T14:47:16.958Z,2.80
2023-03-15T14:49:43.606Z,2.80
2023-03-15T14:52:12.833Z,2.80
2023-03-15T14:54:48.495Z,3.60
2023-03-15T14:57:14.971Z,3.00
2023-03-15T14:59:41.668Z,2.90
2023-03-15T15:02:18.313Z,3.50
2023-03-15T15:04:44.894Z,4.40
2023-03-15T15:07:14.201Z,3.30
2023-03-15T15:09:46.640Z,3.80
2023-03-15T15:12:13.424Z,3.60
2023-03-15T15:14:39.855Z,5.10
2023-03-15T15:17:06.409Z,4.40
2023-03-15T15:19:32.877Z,9.00
2023-03-15T15:21:59.387Z,3.80
2023-03-15T15:24:27.280Z,3.50
2023-03-15T15:26:54.013Z,3.30
2023-03-15T15:29:20.466Z,4.20
2023-03-15T15:31:47.293Z,4.10
2023-03-15T15:34:13.936Z,2.60
2023-03-15T15:36:43.376Z,2.80
2023-03-15T15:39:23.041Z,5.20
2023-03-15T15:41:50.103Z,4.30
2023-03-15T15:44:19.769Z,7.30
2023-03-15T15:46:46.315Z,4.00
2023-03-15T15:49:13.260Z,4.10
2023-03-15T15:51:42.494Z,4.40
2023-03-15T15:54:15.629Z,3.90
2023-03-15T15:56:50.930Z,3.50
2023-03-15T15:59:19.106Z,4.20
2023-03-15T16:01:59.377Z,4.80
2023-03-15T16:04:29.883Z,5.10
2023-03-15T16:07:02.852Z,5.70
2023-03-15T16:09:33.443Z,4.50
2023-03-15T16:11:59.852Z,4.00
2023-03-15T16:14:26.763Z,6.10
2023-03-15T16:16:53.241Z,12.00
2023-03-15T16:19:19.928Z,6.90
2023-03-15T16:21:49.867Z,29.90
2023-03-15T16:24:24.074Z,10.00
2023-03-15T16:26:51.368Z,8.30
2023-03-15T16:29:21.010Z,6.50
2023-03-15T16:31:49.855Z,7.30
2023-03-15T16:34:18.976Z,8.70
2023-03-15T16:36:49.575Z,7.20
2023-03-15T16:39:17.418Z,5.50
2023-03-15T16:41:43.990Z,6.90
2023-03-15T16:44:15.696Z,7.30
2023-03-15T16:46:42.805Z,8.30
2023-03-15T16:49:09.956Z,6.60
2023-03-15T16:51:45.200Z,9.20
2023-03-15T16:54:24.305Z,11.40
2023-03-15T16:56:57.444Z,15.80
2023-03-15T16:59:23.992Z,14.60
2023-03-15T17:01:50.624Z,24.10
2023-03-15T17:04:17.558Z,10.50
2023-03-15T17:06:48.958Z,6.90
2023-03-15T17:09:19.848Z,10.70
2023-03-15T17:11:48.071Z,33.80
2023-03-15T17:14:29.577Z,16.00
2023-03-15T17:16:56.221Z,11.80
2023-03-15T17:19:22.660Z,28.60
2023-03-15T17:21:49.304Z,8.00
2023-03-15T17:24:16.033Z,7.10
2023-03-15T17:26:42.495Z,7.20
2023-03-15T17:29:11.009Z,19.10
2023-03-15T17:31:37.681Z,8.10
2023-03-15T17:34:04.180Z,4.80
2023-03-15T17:36:36.167Z,5.30
2023-03-15T17:39:03.997Z,5.70
2023-03-15T17:41:33.003Z,4.00
2023-03-15T17:43:59.514Z,4.40
2023-03-15T17:46:27.699Z,3.80
2023-03-15T17:48:54.921Z,5.20
2023-03-15T17:51:24.201Z,5.20
2023-03-15T17:53:51.453Z,4.60
2023-03-15T17:56:18.732Z,4.60
2023-03-15T17:58:45.886Z,7.10
2023-03-15T18:01:25.340Z,4.30
2023-03-15T18:03:52.176Z,6.10
2023-03-15T18:06:20.621Z,7.20
2023-03-15T18:08:51.353Z,7.10
2023-03-15T18:11:34.254Z,5.10
2023-03-15T18:14:00.817Z,5.50
2023-03-15T18:16:27.282Z,9.10
2023-03-15T18:18:53.895Z,6.00
2023-03-15T18:21:23.908Z,5.30
2023-03-15T18:23:51.177Z,4.20
2023-03-15T18:26:19.574Z,4.60
2023-03-15T18:28:46.819Z,6.00
2023-03-15T18:31:19.104Z,7.80
2023-03-15T18:33:46.242Z,10.90
2023-03-15T18:36:12.873Z,12.50
2023-03-15T18:38:40.075Z,6.50
2023-03-15T18:41:27.495Z,9.90
2023-03-15T18:43:54.034Z,7.30
2023-03-15T18:46:23.188Z,5.70
2023-03-15T18:48:50.290Z,7.60
2023-03-15T18:51:17.582Z,10.30
2023-03-15T18:53:44.935Z,18.00
2023-03-15T18:56:20.601Z,8.70
2023-03-15T18:58:48.567Z,7.20
2023-03-15T19:01:16.837Z,6.20
2023-03-15T19:03:43.610Z,6.00
2023-03-15T19:06:12.086Z,19.40
2023-03-15T19:08:39.206Z,8.70
2023-03-15T19:11:08.508Z,8.00
2023-03-15T19:13:35.248Z,5.90
2023-03-15T19:16:02.379Z,6.40
2023-03-15T19:18:29.808Z,13.40
2023-03-15T19:20:56.288Z,14.30
2023-03-15T19:23:22.742Z,12.50
2023-03-15T19:25:49.808Z,15.60
2023-03-15T19:28:16.712Z,13.70
2023-03-15T19:30:43.216Z,13.90
2023-03-15T19:33:10.190Z,10.10
2023-03-15T19:35:36.929Z,11.10
2023-03-15T19:38:03.733Z,7.70
2023-03-15T19:40:30.281Z,9.30
2023-03-15T19:42:56.867Z,8.20
2023-03-15T19:45:23.892Z,6.60
2023-03-15T19:47:50.434Z,10.30
2023-03-15T19:50:17.169Z,50.90
2023-03-15T19:52:44.366Z,37.70
2023-03-15T19:55:12.710Z,20.80
2023-03-15T19:57:39.288Z,19.70
2023-03-15T20:00:06.751Z,16.50
2023-03-15T20:02:33.380Z,20.10
2023-03-15T20:04:59.834Z,13.40
2023-03-15T20:07:26.383Z,13.20
2023-03-15T20:09:53.128Z,9.50
2023-03-15T20:12:21.319Z,33.90
2023-03-15T20:14:47.861Z,44.80
2023-03-15T20:17:14.471Z,18.50
2023-03-15T20:19:40.875Z,26.90
2023-03-15T20:22:07.401Z,29.70
2023-03-15T20:24:33.990Z,9.60
2023-03-15T20:27:00.496Z,44.70
2023-03-15T20:29:26.940Z,30.30
2023-03-15T20:31:53.755Z,22.30
2023-03-15T20:34:20.433Z,35.90
2023-03-15T20:36:46.810Z,50.70
2023-03-15T20:39:13.319Z,22.80
2023-03-15T20:41:39.981Z,13.90
2023-03-15T20:44:07.555Z,16.20
2023-03-15T20:46:34.547Z,19.70
2023-03-15T20:49:01.438Z,9.90
2023-03-15T20:51:28.022Z,9.80
2023-03-15T20:53:54.640Z,9.70
2023-03-15T20:56:21.104Z,9.60
2023-03-15T20:58:48.041Z,8.70
